createdAt,value
2023-02-06T00:01:42.774Z,7.88
2023-02-06T00:04:10.798Z,8.60
2023-02-06T00:06:38.714Z,8.36
2023-02-06T00:09:07.066Z,8.65
2023-02-06T00:11:35.122Z,7.95
2023-02-06T00:14:03.337Z,7.75
2023-02-06T00:16:34.236Z,7.85
2023-02-06T00:19:02.572Z,7.95
2023-02-06T00:21:31.125Z,8.04
2023-02-06T00:24:01.134Z,7.58
2023-02-06T00:26:31.226Z,7.70
2023-02-06T00:28:59.123Z,7.16
2023-02-06T00:31:27.019Z,7.28
2023-02-06T00:33:55.039Z,7.60
2023-02-06T00:36:22.959Z,7.32
2023-02-06T00:38:52.624Z,7.19
2023-02-06T00:41:21.636Z,7.32
2023-02-06T00:43:52.137Z,7.77
2023-02-06T00:46:20.710Z,7.90
2023-02-06T00:48:48.567Z,7.27
2023-02-06T00:51:16.407Z,7.41
2023-02-06T00:53:44.469Z,7.29
2023-02-06T00:56:12.370Z,7.18
2023-02-06T00:58:40.210Z,7.59
2023-02-06T01:01:08.340Z,7.39
2023-02-06T01:03:36.176Z,7.05
2023-02-06T01:06:04.071Z,7.33
2023-02-06T01:08:32.029Z,7.04
2023-02-06T01:11:00.657Z,6.98
2023-02-06T01:13:28.717Z,7.13
2023-02-06T01:15:56.622Z,7.03
2023-02-06T01:18:24.550Z,7.16
2023-02-06T01:20:52.350Z,6.91
2023-02-06T01:23:20.221Z,6.79
2023-02-06T01:25:48.058Z,6.62
2023-02-06T01:28:17.499Z,6.74
2023-02-06T01:30:45.628Z,6.53
2023-02-06T01:33:13.478Z,6.42
2023-02-06T01:35:41.301Z,6.46
2023-02-06T01:38:09.234Z,6.60
2023-02-06T01:40:37.062Z,6.39
2023-02-06T01:43:16.008Z,6.37
2023-02-06T01:45:46.061Z,6.66
2023-02-06T01:48:19.311Z,7.07
2023-02-06T01:50:54.288Z,6.82
2023-02-06T01:53:24.298Z,6.69
2023-02-06T01:55:55.158Z,7.12
2023-02-06T01:58:32.522Z,7.11
2023-02-06T02:01:02.020Z,6.95
2023-02-06T02:03:32.537Z,7.10
2023-02-06T02:06:07.026Z,6.92
2023-02-06T02:08:40.854Z,6.72
2023-02-06T02:11:12.559Z,6.67
2023-02-06T02:13:40.672Z,6.96
2023-02-06T02:16:46.402Z,6.90
2023-02-06T02:19:51.553Z,6.57
2023-02-06T02:22:50.163Z,6.31
2023-02-06T02:25:55.419Z,6.51
2023-02-06T02:28:29.247Z,6.34
2023-02-06T02:31:09.659Z,6.81
2023-02-06T02:33:49.634Z,6.49
2023-02-06T02:36:42.513Z,6.69
2023-02-06T02:39:44.476Z,6.62
2023-02-06T02:42:22.851Z,6.72
2023-02-06T02:44:57.415Z,6.52
2023-02-06T02:47:30.822Z,6.38
2023-02-06T02:50:00.950Z,6.31
2023-02-06T02:52:29.158Z,6.15
2023-02-06T02:54:56.992Z,6.62
2023-02-06T02:57:29.271Z,6.30
2023-02-06T03:00:00.069Z,6.30
2023-02-06T03:02:39.277Z,7.19
2023-02-06T03:05:12.167Z,8.35
2023-02-06T03:08:23.022Z,7.90
2023-02-06T03:11:16.316Z,7.99
2023-02-06T03:14:06.076Z,8.08
2023-02-06T03:16:42.635Z,8.88
2023-02-06T03:19:24.553Z,9.17
2023-02-06T03:21:52.380Z,9.24
2023-02-06T03:24:26.623Z,9.64
2023-02-06T03:27:02.197Z,9.22
2023-02-06T03:29:34.291Z,9.72
2023-02-06T03:32:16.566Z,9.86
2023-02-06T03:34:56.037Z,9.92
2023-02-06T03:37:25.879Z,10.20
2023-02-06T03:39:55.472Z,9.64
2023-02-06T03:42:25.111Z,9.94
2023-02-06T03:45:08.218Z,10.45
2023-02-06T03:47:38.727Z,10.40
2023-02-06T03:50:09.901Z,11.12
2023-02-06T03:52:43.041Z,10.72
2023-02-06T03:55:15.212Z,10.50
2023-02-06T03:57:47.963Z,10.77
2023-02-06T04:00:16.438Z,10.66
2023-02-06T04:02:47.595Z,11.23
2023-02-06T04:05:17.374Z,11.12
2023-02-06T04:07:45.321Z,11.43
2023-02-06T04:10:13.217Z,11.25
2023-02-06T04:12:41.287Z,11.10
2023-02-06T04:15:09.379Z,11.90
2023-02-06T04:17:53.707Z,11.65
2023-02-06T04:20:26.705Z,10.67
2023-02-06T04:22:54.505Z,8.88
2023-02-06T04:25:22.374Z,8.13
2023-02-06T04:27:50.353Z,8.41
2023-02-06T04:30:18.779Z,10.22
2023-02-06T04:32:46.818Z,9.09
2023-02-06T04:35:14.659Z,8.76
2023-02-06T04:37:42.460Z,8.29
2023-02-06T04:40:11.044Z,8.33
2023-02-06T04:42:38.966Z,8.69
2023-02-06T04:45:07.324Z,8.86
2023-02-06T04:47:35.219Z,9.16
2023-02-06T04:50:04.149Z,8.59
2023-02-06T04:52:32.046Z,8.53
2023-02-06T04:54:59.942Z,8.53
2023-02-06T04:57:27.960Z,8.80
2023-02-06T04:59:55.781Z,8.74
2023-02-06T05:02:23.735Z,9.27
2023-02-06T05:04:51.579Z,9.14
2023-02-06T05:07:19.480Z,8.77
2023-02-06T05:09:47.365Z,9.01
2023-02-06T05:12:15.226Z,8.39
2023-02-06T05:14:43.052Z,8.76
2023-02-06T05:17:10.946Z,9.59
2023-02-06T05:19:38.822Z,9.51
2023-02-06T05:22:06.782Z,9.35
2023-02-06T05:24:34.662Z,9.57
2023-02-06T05:27:02.465Z,9.77
2023-02-06T05:29:30.384Z,11.59
2023-02-06T05:31:58.462Z,11.64
2023-02-06T05:34:26.470Z,11.27
2023-02-06T05:36:54.370Z,11.57
2023-02-06T05:39:22.406Z,11.50
2023-02-06T05:41:50.305Z,11.94
2023-02-06T05:44:18.186Z,12.25
2023-02-06T05:46:48.418Z,12.67
2023-02-06T05:49:16.618Z,13.08
2023-02-06T05:51:44.576Z,12.16
2023-02-06T05:54:13.181Z,11.87
2023-02-06T05:56:41.251Z,11.93
2023-02-06T05:59:09.273Z,12.47
2023-02-06T06:01:37.181Z,12.66
2023-02-06T06:04:05.338Z,13.26
2023-02-06T06:06:33.320Z,13.28
2023-02-06T06:09:01.402Z,12.41
2023-02-06T06:11:30.252Z,11.99
2023-02-06T06:13:58.126Z,12.26
2023-02-06T06:16:26.080Z,12.23
2023-02-06T06:18:53.984Z,12.76
2023-02-06T06:21:23.083Z,15.14
2023-02-06T06:23:51.036Z,17.17
2023-02-06T06:26:19.924Z,16.17
2023-02-06T06:28:48.260Z,15.87
2023-02-06T06:31:16.500Z,16.01
2023-02-06T06:33:44.714Z,16.28
2023-02-06T06:36:14.595Z,15.51
2023-02-06T06:38:42.629Z,16.67
2023-02-06T06:41:10.676Z,19.83
2023-02-06T06:43:39.434Z,19.43
2023-02-06T06:46:10.742Z,18.01
2023-02-06T06:48:38.666Z,16.74
2023-02-06T06:51:06.821Z,15.58
2023-02-06T06:53:34.842Z,14.77
2023-02-06T06:56:07.932Z,14.35
2023-02-06T06:58:36.650Z,15.07
2023-02-06T07:01:05.187Z,17.08
2023-02-06T07:03:33.070Z,18.15
2023-02-06T07:06:01.174Z,17.75
2023-02-06T07:08:30.101Z,17.96
2023-02-06T07:10:58.279Z,17.72
2023-02-06T07:13:26.200Z,16.95
2023-02-06T07:15:54.090Z,16.67
2023-02-06T07:18:22.221Z,16.11
2023-02-06T07:20:51.416Z,14.98
2023-02-06T07:23:19.315Z,14.19
2023-02-06T07:25:47.186Z,14.33
2023-02-06T07:28:15.265Z,13.87
2023-02-06T07:30:43.254Z,14.14
2023-02-06T07:33:11.200Z,14.51
2023-02-06T07:35:39.217Z,14.80
2023-02-06T07:38:07.103Z,14.60
2023-02-06T07:40:44.719Z,14.89
2023-02-06T07:43:13.847Z,14.60
2023-02-06T07:45:41.963Z,14.23
2023-02-06T07:48:09.921Z,14.14
2023-02-06T07:50:38.094Z,15.13
2023-02-06T07:53:06.247Z,14.25
2023-02-06T07:55:37.003Z,14.79
2023-02-06T07:58:05.057Z,13.35
2023-02-06T08:00:33.169Z,13.90
2023-02-06T08:03:01.037Z,13.91
2023-02-06T08:05:28.888Z,13.61
2023-02-06T08:07:56.916Z,14.08
2023-02-06T08:10:25.638Z,15.01
2023-02-06T08:12:53.574Z,14.55
2023-02-06T08:15:21.416Z,15.35
2023-02-06T08:17:49.304Z,15.33
2023-02-06T08:20:17.321Z,16.06
2023-02-06T08:22:45.190Z,17.84
2023-02-06T08:25:13.117Z,16.58
2023-02-06T08:27:41.165Z,16.34
2023-02-06T08:30:09.564Z,17.07
2023-02-06T08:32:37.477Z,17.61
2023-02-06T08:35:05.859Z,17.12
2023-02-06T08:37:33.892Z,17.77
2023-02-06T08:40:01.896Z,19.84
2023-02-06T08:42:29.796Z,21.69
2023-02-06T08:44:57.779Z,23.13
2023-02-06T08:47:25.609Z,28.43
2023-02-06T08:49:54.656Z,28.66
2023-02-06T08:52:23.372Z,30.26
2023-02-06T08:54:52.125Z,32.07
2023-02-06T08:57:20.349Z,34.92
2023-02-06T08:59:49.678Z,36.93
2023-02-06T09:02:17.599Z,35.97
2023-02-06T09:04:45.613Z,34.83
2023-02-06T09:07:15.692Z,36.43
2023-02-06T09:09:44.889Z,41.04
2023-02-06T09:12:12.746Z,41.02
2023-02-06T09:14:40.633Z,40.51
2023-02-06T09:17:08.607Z,33.83
2023-02-06T09:19:36.532Z,30.52
2023-02-06T09:22:06.345Z,29.17
2023-02-06T09:24:35.062Z,27.93
2023-02-06T09:27:02.937Z,28.33
2023-02-06T09:29:34.170Z,29.75
2023-02-06T09:32:02.348Z,27.59
2023-02-06T09:34:30.342Z,25.73
2023-02-06T09:36:58.497Z,24.93
2023-02-06T09:39:26.790Z,25.03
2023-02-06T09:42:19.633Z,23.68
2023-02-06T09:44:51.479Z,23.87
2023-02-06T09:47:32.355Z,23.97
2023-02-06T09:50:40.181Z,24.65
2023-02-06T09:53:16.912Z,22.58
2023-02-06T09:55:51.739Z,23.82
2023-02-06T09:58:47.283Z,22.70
2023-02-06T10:01:41.171Z,20.74
2023-02-06T10:04:42.165Z,20.88
2023-02-06T10:07:30.574Z,20.85
2023-02-06T10:10:18.159Z,21.71
2023-02-06T10:13:02.308Z,22.15
2023-02-06T10:15:46.250Z,22.99
2023-02-06T10:18:39.666Z,22.42
2023-02-06T10:21:32.336Z,22.66
2023-02-06T10:24:10.751Z,22.79
2023-02-06T10:26:40.455Z,21.23
2023-02-06T10:29:18.347Z,21.38
2023-02-06T10:31:57.662Z,22.04
2023-02-06T10:34:47.243Z,21.36
2023-02-06T10:37:36.829Z,19.78
2023-02-06T10:40:36.103Z,21.43
2023-02-06T10:43:22.369Z,20.89
2023-02-06T10:46:01.861Z,21.92
2023-02-06T10:48:54.352Z,20.32
2023-02-06T10:51:32.027Z,20.47
2023-02-06T10:54:14.890Z,19.98
2023-02-06T10:56:45.079Z,19.40
2023-02-06T10:59:35.363Z,19.04
2023-02-06T11:02:30.769Z,18.73
2023-02-06T11:05:25.338Z,18.75
2023-02-06T11:07:58.478Z,18.61
2023-02-06T11:10:26.713Z,18.75
2023-02-06T11:13:22.926Z,19.05
2023-02-06T11:16:01.724Z,18.25
2023-02-06T11:18:36.437Z,18.25
2023-02-06T11:21:05.078Z,18.27
2023-02-06T11:23:36.550Z,18.06
2023-02-06T11:26:12.959Z,17.06
2023-02-06T11:28:54.279Z,16.93
2023-02-06T11:31:40.942Z,16.54
2023-02-06T11:34:37.471Z,16.33
2023-02-06T11:37:27.440Z,15.45
2023-02-06T11:40:13.978Z,15.83
2023-02-06T11:42:41.971Z,16.57
2023-02-06T11:45:29.162Z,15.46
2023-02-06T11:47:57.468Z,15.25
2023-02-06T11:50:35.326Z,15.45
2023-02-06T11:53:18.086Z,15.24
2023-02-06T11:55:47.017Z,15.79
2023-02-06T11:58:14.802Z,14.84
2023-02-06T12:01:01.010Z,15.35
2023-02-06T12:03:33.616Z,15.19
2023-02-06T12:06:18.134Z,14.38
2023-02-06T12:08:48.965Z,15.03
2023-02-06T12:11:37.217Z,15.93
2023-02-06T12:14:11.256Z,15.59
2023-02-06T12:16:43.398Z,14.81
2023-02-06T12:19:19.024Z,14.92
2023-02-06T12:21:54.817Z,14.30
2023-02-06T12:24:22.677Z,14.71
2023-02-06T12:26:54.834Z,13.96
2023-02-06T12:29:33.570Z,14.74
2023-02-06T12:32:09.928Z,16.13
2023-02-06T12:34:52.022Z,14.71
2023-02-06T12:37:37.814Z,14.98
2023-02-06T12:40:24.693Z,14.13
2023-02-06T12:43:04.021Z,14.40
2023-02-06T12:45:50.432Z,13.99
2023-02-06T12:48:41.496Z,14.61
2023-02-06T12:51:45.577Z,14.13
2023-02-06T12:54:23.576Z,14.48
2023-02-06T12:57:05.940Z,14.59
2023-02-06T12:59:57.178Z,14.73
2023-02-06T13:02:50.446Z,14.80
2023-02-06T13:05:30.187Z,14.54
2023-02-06T13:08:06.555Z,14.73
2023-02-06T13:10:36.801Z,14.40
2023-02-06T13:13:05.296Z,15.16
2023-02-06T13:15:40.514Z,15.32
2023-02-06T13:18:50.487Z,14.98
2023-02-06T13:21:32.233Z,15.62
2023-02-06T13:24:03.104Z,15.06
2023-02-06T13:26:43.115Z,15.34
2023-02-06T13:29:41.512Z,15.38
2023-02-06T13:32:12.560Z,15.88
2023-02-06T13:34:43.246Z,16.00
2023-02-06T13:37:30.062Z,15.40
2023-02-06T13:40:21.024Z,15.63
2023-02-06T13:43:00.440Z,15.12
2023-02-06T13:45:40.930Z,14.58
2023-02-06T13:48:08.965Z,14.81
2023-02-06T13:50:51.991Z,15.07
2023-02-06T13:53:41.018Z,14.46
2023-02-06T13:56:20.410Z,15.40
2023-02-06T13:58:53.800Z,15.01
2023-02-06T14:01:31.615Z,14.90
2023-02-06T14:04:00.105Z,14.84
2023-02-06T14:06:44.295Z,14.51
2023-02-06T14:09:30.580Z,14.22
2023-02-06T14:12:35.302Z,14.59
2023-02-06T14:15:41.073Z,14.28
2023-02-06T14:18:39.801Z,14.16
2023-02-06T14:21:32.424Z,14.74
2023-02-06T14:24:30.147Z,14.01
2023-02-06T14:27:26.311Z,14.01
2023-02-06T14:30:03.010Z,14.15
2023-02-06T14:32:39.985Z,14.96
2023-02-06T14:35:32.051Z,14.50
2023-02-06T14:38:46.426Z,14.06
2023-02-06T14:41:15.308Z,14.66
2023-02-06T14:43:46.244Z,14.55
2023-02-06T14:46:17.269Z,14.79
2023-02-06T14:48:52.188Z,14.51
2023-02-06T14:51:26.640Z,14.28
2023-02-06T14:54:03.992Z,14.33
2023-02-06T14:56:37.658Z,15.22
2023-02-06T14:59:16.872Z,14.16
2023-02-06T15:01:48.152Z,15.05
2023-02-06T15:04:17.138Z,15.22
2023-02-06T15:06:51.395Z,15.03
2023-02-06T15:09:54.645Z,15.26
2023-02-06T15:12:26.613Z,15.87
2023-02-06T15:15:15.479Z,16.37
2023-02-06T15:17:43.905Z,16.29
2023-02-06T15:20:20.789Z,16.73
2023-02-06T15:22:49.038Z,16.27
2023-02-06T15:25:40.656Z,16.81
2023-02-06T15:28:18.756Z,16.71
2023-02-06T15:30:47.285Z,19.63
2023-02-06T15:33:22.807Z,19.81
2023-02-06T15:35:53.693Z,16.45
2023-02-06T15:38:24.179Z,16.97
2023-02-06T15:41:00.437Z,17.30
2023-02-06T15:43:29.181Z,17.75
2023-02-06T15:46:00.210Z,18.14
2023-02-06T15:48:43.722Z,17.00
2023-02-06T15:51:49.222Z,17.19
2023-02-06T15:54:23.372Z,17.16
2023-02-06T15:56:54.812Z,16.78
2023-02-06T15:59:25.673Z,17.13
2023-02-06T16:01:57.086Z,16.80
2023-02-06T16:04:39.752Z,17.07
2023-02-06T16:07:21.799Z,17.09
2023-02-06T16:09:54.828Z,17.18
2023-02-06T16:12:23.061Z,16.33
2023-02-06T16:14:59.548Z,16.54
2023-02-06T16:17:34.104Z,17.07
2023-02-06T16:20:05.484Z,16.63
2023-02-06T16:22:38.342Z,16.78
2023-02-06T16:25:25.955Z,17.09
2023-02-06T16:27:54.058Z,16.79
2023-02-06T16:30:34.893Z,16.97
2023-02-06T16:33:22.121Z,17.64
2023-02-06T16:35:50.047Z,17.38
2023-02-06T16:38:18.188Z,17.67
2023-02-06T16:40:46.318Z,17.56
2023-02-06T16:43:14.214Z,17.36
2023-02-06T16:45:42.132Z,17.51
2023-02-06T16:48:17.228Z,17.94
2023-02-06T16:50:47.601Z,18.01
2023-02-06T16:53:22.056Z,18.26
2023-02-06T16:55:50.635Z,18.13
2023-02-06T16:58:24.154Z,17.71
2023-02-06T17:00:52.203Z,18.20
2023-02-06T17:03:20.097Z,17.51
2023-02-06T17:05:49.361Z,18.20
2023-02-06T17:08:19.990Z,17.79
2023-02-06T17:10:48.553Z,18.05
2023-02-06T17:13:22.136Z,18.55
2023-02-06T17:15:53.151Z,22.55
2023-02-06T17:18:22.979Z,19.44
2023-02-06T17:20:53.002Z,18.62
2023-02-06T17:23:21.098Z,18.76
2023-02-06T17:25:50.966Z,18.55
2023-02-06T17:28:19.968Z,19.55
2023-02-06T17:30:49.832Z,19.53
2023-02-06T17:33:17.841Z,19.60
2023-02-06T17:35:46.797Z,16.84
2023-02-06T17:38:14.918Z,17.07
2023-02-06T17:40:42.980Z,16.93
2023-02-06T17:43:10.872Z,16.08
2023-02-06T17:45:39.720Z,16.19
2023-02-06T17:48:08.318Z,16.71
2023-02-06T17:50:38.039Z,17.00
2023-02-06T17:53:07.144Z,17.13
2023-02-06T17:55:35.916Z,17.25
2023-02-06T17:58:04.756Z,16.30
2023-02-06T18:00:33.018Z,16.50
2023-02-06T18:03:01.130Z,16.50
2023-02-06T18:05:29.112Z,16.44
2023-02-06T18:07:56.974Z,15.57
2023-02-06T18:10:25.637Z,15.27
2023-02-06T18:12:53.656Z,15.60
2023-02-06T18:15:21.571Z,15.90
2023-02-06T18:17:49.602Z,15.28
2023-02-06T18:20:17.804Z,19.59
2023-02-06T18:22:46.690Z,15.29
2023-02-06T18:25:15.039Z,14.91
2023-02-06T18:27:45.671Z,14.70
2023-02-06T18:30:15.431Z,15.91
2023-02-06T18:32:44.085Z,15.65
2023-02-06T18:35:12.238Z,15.48
2023-02-06T18:37:40.221Z,15.65
2023-02-06T18:40:08.608Z,15.49
2023-02-06T18:42:51.839Z,15.94
2023-02-06T18:45:21.701Z,17.28
2023-02-06T18:47:51.471Z,17.00
2023-02-06T18:50:21.978Z,16.84
2023-02-06T18:52:50.624Z,16.11
2023-02-06T18:55:19.608Z,16.01
2023-02-06T18:57:47.596Z,17.14
2023-02-06T19:00:19.136Z,18.14
2023-02-06T19:02:47.324Z,21.42
2023-02-06T19:05:16.020Z,36.24
2023-02-06T19:07:48.371Z,23.18
2023-02-06T19:10:16.888Z,19.04
2023-02-06T19:12:45.096Z,16.89
2023-02-06T19:15:14.926Z,17.22
2023-02-06T19:17:42.961Z,17.54
2023-02-06T19:20:11.725Z,16.24
2023-02-06T19:22:39.646Z,16.12
2023-02-06T19:25:11.372Z,15.92
2023-02-06T19:27:40.082Z,16.90
2023-02-06T19:30:08.503Z,16.52
2023-02-06T19:32:36.569Z,16.38
2023-02-06T19:35:04.856Z,15.91
2023-02-06T19:37:32.811Z,15.80
2023-02-06T19:40:00.736Z,15.59
2023-02-06T19:42:28.620Z,16.40
2023-02-06T19:44:56.454Z,15.30
2023-02-06T19:47:24.446Z,15.68
2023-02-06T19:49:52.869Z,15.42
2023-02-06T19:52:21.123Z,15.71
2023-02-06T19:54:49.023Z,16.10
2023-02-06T19:57:19.337Z,16.18
2023-02-06T19:59:47.257Z,16.02
2023-02-06T20:02:15.764Z,15.82
2023-02-06T20:04:45.248Z,17.07
2023-02-06T20:07:13.310Z,18.10
2023-02-06T20:09:42.311Z,17.82
2023-02-06T20:12:12.423Z,15.89
2023-02-06T20:14:40.323Z,15.46
2023-02-06T20:17:08.533Z,15.59
2023-02-06T20:19:36.560Z,15.02
2023-02-06T20:22:05.259Z,14.61
2023-02-06T20:24:33.285Z,14.71
2023-02-06T20:27:07.227Z,14.35
2023-02-06T20:29:38.351Z,15.14
2023-02-06T20:32:07.254Z,14.97
2023-02-06T20:34:35.611Z,15.19
2023-02-06T20:37:04.390Z,15.28
2023-02-06T20:39:32.760Z,15.37
2023-02-06T20:42:00.873Z,15.46
2023-02-06T20:44:29.724Z,16.09
2023-02-06T20:46:57.679Z,16.31
2023-02-06T20:49:27.586Z,16.60
2023-02-06T20:51:55.642Z,15.93
2023-02-06T20:54:25.916Z,16.21
2023-02-06T20:56:54.036Z,16.10
2023-02-06T20:59:22.685Z,16.09
2023-02-06T21:01:50.626Z,16.76
2023-02-06T21:04:19.400Z,16.47
2023-02-06T21:06:50.376Z,15.33
2023-02-06T21:09:19.290Z,14.77
2023-02-06T21:11:48.782Z,15.07
2023-02-06T21:14:17.665Z,15.67
2023-02-06T21:16:45.938Z,15.46
2023-02-06T21:19:16.809Z,14.78
2023-02-06T21:21:46.340Z,15.05
2023-02-06T21:24:15.904Z,15.25
2023-02-06T21:26:43.951Z,14.82
2023-02-06T21:29:14.065Z,14.85
2023-02-06T21:31:42.844Z,14.80
2023-02-06T21:34:18.010Z,14.65
2023-02-06T21:36:46.120Z,13.95
2023-02-06T21:39:21.881Z,14.34
2023-02-06T21:41:51.941Z,14.66
2023-02-06T21:44:21.534Z,15.19
2023-02-06T21:46:50.047Z,15.60
2023-02-06T21:49:18.674Z,15.47
2023-02-06T21:51:46.610Z,15.22
2023-02-06T21:54:14.627Z,15.21
2023-02-06T21:56:42.922Z,16.12
2023-02-06T21:59:12.108Z,15.10
2023-02-06T22:01:41.254Z,15.23
2023-02-06T22:04:11.339Z,14.89
2023-02-06T22:06:40.733Z,15.10
2023-02-06T22:09:15.193Z,15.28
2023-02-06T22:11:45.312Z,15.12
2023-02-06T22:14:15.980Z,15.23
2023-02-06T22:16:46.896Z,15.19
2023-02-06T22:19:16.152Z,15.07
2023-02-06T22:21:44.817Z,15.76
2023-02-06T22:24:12.783Z,15.22
2023-02-06T22:26:41.503Z,15.42
2023-02-06T22:29:15.238Z,15.86
2023-02-06T22:31:44.129Z,15.36
2023-02-06T22:34:20.569Z,15.51
2023-02-06T22:36:50.934Z,15.90
2023-02-06T22:39:19.604Z,15.83
2023-02-06T22:41:47.778Z,15.25
2023-02-06T22:44:17.562Z,15.30
2023-02-06T22:46:48.383Z,15.51
2023-02-06T22:49:16.363Z,14.41
2023-02-06T22:51:44.908Z,14.58
2023-02-06T22:54:14.291Z,14.20
2023-02-06T22:56:43.603Z,13.67
2023-02-06T22:59:16.964Z,14.19
2023-02-06T23:01:54.381Z,14.40
2023-02-06T23:04:25.111Z,14.33
2023-02-06T23:06:54.158Z,14.38
2023-02-06T23:09:25.249Z,14.16
2023-02-06T23:11:54.157Z,14.47
2023-02-06T23:14:22.194Z,14.07
2023-02-06T23:16:50.866Z,14.26
2023-02-06T23:19:19.580Z,13.98
2023-02-06T23:21:49.238Z,13.43
2023-02-06T23:24:17.644Z,14.37
2023-02-06T23:26:49.174Z,14.46
2023-02-06T23:29:19.203Z,14.70
2023-02-06T23:31:48.121Z,13.94
2023-02-06T23:34:17.581Z,14.23
2023-02-06T23:36:46.340Z,14.68
2023-02-06T23:39:14.272Z,14.40
2023-02-06T23:41:42.281Z,14.38
2023-02-06T23:44:10.834Z,14.51
2023-02-06T23:46:39.854Z,14.54
2023-02-06T23:49:08.780Z,14.70
2023-02-06T23:51:38.198Z,15.04
2023-02-06T23:54:07.643Z,15.03
2023-02-06T23:56:36.440Z,15.46
2023-02-06T23:59:05.683Z,14.79
